Time;durP1;ratioP1;P1;durP2;ratioP2;P2;SDS_P1;SDS_P2;PMS_P1;PMS_P2;Temp;Humidity;BMP_temperature;BMP_pressure;BME280_temperature;BME280_humidity;BME280_pressure;Samples;Min_cycle;Max_cycle;Signal;HPM_P1;HPM_P2
2021/12/12 00:00:30;;;;;;;24.25;10.95;;;12.70;99.90;;;;;;5189246;28;20108;-74
2021/12/12 00:03:14;;;;;;;22.42;10.48;;;12.70;99.90;;;;;;5189249;28;20025;-75
2021/12/12 00:05:54;;;;;;;25.23;13.15;;;12.50;99.90;;;;;;5187782;28;20036;-75
2021/12/12 00:08:26;;;;;;;28.58;15.88;;;12.20;99.90;;;;;;5189250;28;20457;-74
2021/12/12 00:11:05;;;;;;;25.08;13.43;;;12.30;99.90;;;;;;5188896;28;20101;-75
2021/12/12 00:13:41;;;;;;;30.88;14.43;;;12.10;99.90;;;;;;5188297;28;20041;-75
2021/12/12 00:16:13;;;;;;;24.15;12.13;;;12.00;99.90;;;;;;5188973;28;20347;-75
2021/12/12 00:18:44;;;;;;;20.40;10.82;;;12.20;99.90;;;;;;5189031;28;20117;-74
2021/12/12 00:21:21;;;;;;;19.88;11.48;;;12.00;99.90;;;;;;5187707;28;20029;-75
2021/12/12 00:23:52;;;;;;;18.48;11.75;;;12.10;99.90;;;;;;5187574;28;20540;-75
2021/12/12 00:26:23;;;;;;;27.52;15.32;;;12.20;99.90;;;;;;5188731;28;20483;-75
2021/12/12 00:28:55;;;;;;;29.08;15.68;;;12.30;99.90;;;;;;5188889;28;20030;-75
2021/12/12 00:31:26;;;;;;;25.80;13.73;;;12.00;99.90;;;;;;5188331;28;20069;-75
2021/12/12 00:33:59;;;;;;;21.15;12.50;;;12.00;99.90;;;;;;5187264;28;20549;-75
2021/12/12 00:36:32;;;;;;;24.25;12.45;;;11.90;99.90;;;;;;5188586;28;20022;-77
2021/12/12 00:39:12;;;;;;;24.60;12.88;;;11.80;99.90;;;;;;5188490;28;20033;-78
2021/12/12 00:42:16;;;;;;;23.98;13.55;;;11.90;99.90;;;;;;5188504;28;20060;-77
2021/12/12 00:44:51;;;;;;;28.73;14.05;;;11.90;99.90;;;;;;5188257;28;20034;-75
2021/12/12 00:47:23;;;;;;;26.05;13.52;;;12.10;99.90;;;;;;5188426;28;20046;-75
2021/12/12 00:49:54;;;;;;;23.73;12.90;;;11.90;99.90;;;;;;5188324;28;20485;-77
2021/12/12 00:52:25;;;;;;;26.67;12.43;;;12.30;99.90;;;;;;5188322;28;20030;-77
2021/12/12 00:54:55;;;;;;;23.90;11.80;;;12.20;99.90;;;;;;5188291;28;20152;-76
2021/12/12 00:57:27;;;;;;;18.65;8.75;;;12.30;99.90;;;;;;5186990;28;20018;-77
2021/12/12 00:59:58;;;;;;;22.13;10.25;;;12.80;99.90;;;;;;5188109;28;20033;-76
2021/12/12 01:02:30;;;;;;;29.88;13.57;;;12.70;99.90;;;;;;5188126;28;20037;-76
2021/12/12 01:05:06;;;;;;;16.92;10.30;;;12.30;99.90;;;;;;5187937;28;20022;-76
2021/12/12 01:07:40;;;;;;;16.17;8.05;;;12.80;99.90;;;;;;5188156;28;20026;-76
2021/12/12 01:10:30;;;;;;;16.27;8.43;;;13.00;99.90;;;;;;5187983;28;20025;-76
2021/12/12 01:13:04;;;;;;;14.10;7.07;;;12.90;99.90;;;;;;5186534;28;20489;-75
2021/12/12 01:15:39;;;;;;;7.93;2.70;;;13.30;99.90;;;;;;5187796;28;20033;-76
2021/12/12 01:18:16;;;;;;;8.95;2.80;;;15.70;99.90;;;;;;5187828;28;20026;-77
2021/12/12 01:20:54;;;;;;;6.72;2.45;;;15.40;99.90;;;;;;5187779;28;20531;-76
2021/12/12 01:23:37;;;;;;;7.53;2.95;;;15.30;99.90;;;;;;5187544;28;20492;-77
2021/12/12 01:26:08;;;;;;;9.90;2.72;;;15.60;99.90;;;;;;5187595;28;20032;-77
2021/12/12 01:28:43;;;;;;;6.20;2.20;;;16.30;99.90;;;;;;5187596;28;20392;-75
2021/12/12 01:31:19;;;;;;;6.35;2.20;;;16.10;99.90;;;;;;5187385;28;20045;-77
2021/12/12 01:33:59;;;;;;;8.60;2.00;;;16.30;99.90;;;;;;5187380;28;20064;-76
2021/12/12 01:36:44;;;;;;;7.45;2.28;;;16.60;99.90;;;;;;5187541;28;20037;-76
2021/12/12 01:39:19;;;;;;;8.10;2.28;;;16.40;99.90;;;;;;5187459;28;20037;-76
2021/12/12 01:42:02;;;;;;;4.78;2.13;;;16.60;99.90;;;;;;5187373;28;20050;-77
2021/12/12 01:44:48;;;;;;;8.35;2.08;;;16.60;99.90;;;;;;5187222;28;20034;-76
2021/12/12 01:47:23;;;;;;;6.28;2.22;;;16.60;99.90;;;;;;5187326;28;20025;-77
2021/12/12 01:50:01;;;;;;;8.90;2.17;;;17.00;99.90;;;;;;5187316;28;20121;-77
2021/12/12 01:52:33;;;;;;;12.05;2.50;;;16.40;99.90;;;;;;5185884;28;20116;-77
2021/12/12 01:55:23;;;;;;;7.60;2.30;;;16.30;99.90;;;;;;5187030;28;20029;-76
2021/12/12 01:57:58;;;;;;;4.07;2.25;;;16.40;99.90;;;;;;5187111;28;20014;-76
2021/12/12 02:00:39;;;;;;;7.25;2.17;;;16.00;99.90;;;;;;5187113;28;20034;-77
2021/12/12 02:03:13;;;;;;;8.75;2.40;;;16.70;99.90;;;;;;5187132;28;20057;-76
2021/12/12 02:05:45;;;;;;;6.22;2.20;;;16.70;99.90;;;;;;5186769;28;20069;-76
2021/12/12 02:08:18;;;;;;;8.00;2.60;;;16.60;99.90;;;;;;5187023;28;20045;-76
2021/12/12 02:10:55;;;;;;;6.28;2.30;;;16.60;99.90;;;;;;5186954;28;20021;-76
2021/12/12 02:13:30;;;;;;;6.88;2.80;;;16.70;99.90;;;;;;5186633;28;20042;-77
2021/12/12 02:16:01;;;;;;;5.72;2.15;;;16.80;99.90;;;;;;5186645;28;20365;-76
2021/12/12 02:18:36;;;;;;;10.23;2.90;;;16.90;99.90;;;;;;5186734;28;20061;-75
2021/12/12 02:21:24;;;;;;;10.98;2.20;;;16.90;99.90;;;;;;5186609;28;20024;-76
2021/12/12 02:38:04;;;;;;;7.50;2.60;;;17.00;99.90;;;;;;5274768;23;21892;-79
2021/12/12 02:40:42;;;;;;;6.38;2.40;;;17.30;99.90;;;;;;5186579;28;20058;-80
2021/12/12 02:43:18;;;;;;;6.97;2.40;;;17.20;99.90;;;;;;5186455;28;20518;-80
2021/12/12 02:45:54;;;;;;;6.45;2.53;;;17.30;99.90;;;;;;5186494;28;20076;-79
2021/12/12 02:48:29;;;;;;;7.65;2.40;;;17.00;99.90;;;;;;5185081;28;20122;-80
2021/12/12 02:51:06;;;;;;;7.53;2.47;;;16.90;99.90;;;;;;5186415;28;20029;-80
2021/12/12 02:53:52;;;;;;;8.85;3.00;;;16.90;99.90;;;;;;5186198;28;20109;-80
2021/12/12 02:56:29;;;;;;;6.65;2.50;;;16.70;99.90;;;;;;5184944;28;20033;-80
2021/12/12 02:59:08;;;;;;;4.95;2.60;;;16.90;99.90;;;;;;5184882;28;20091;-80
2021/12/12 03:01:56;;;;;;;6.35;2.78;;;16.90;99.90;;;;;;5186322;28;20030;-80
2021/12/12 03:04:28;;;;;;;6.22;2.85;;;16.70;99.90;;;;;;5184990;28;20049;-80
2021/12/12 03:06:59;;;;;;;8.90;2.45;;;16.70;99.90;;;;;;5186125;28;20026;-80
2021/12/12 03:09:44;;;;;;;5.13;2.63;;;16.90;99.90;;;;;;5204078;28;20502;-79
2021/12/12 03:12:19;;;;;;;7.43;2.75;;;16.50;99.90;;;;;;5206494;28;20034;-79
2021/12/12 03:14:53;;;;;;;6.68;2.70;;;17.10;99.90;;;;;;5206501;28;20033;-80
2021/12/12 03:17:24;;;;;;;8.40;3.00;;;16.80;99.90;;;;;;5206340;28;20033;-80
2021/12/12 03:20:09;;;;;;;8.32;2.75;;;16.40;99.90;;;;;;5205173;28;20102;-79
2021/12/12 03:22:40;;;;;;;5.93;2.97;;;15.90;99.90;;;;;;5206490;28;20022;-80
2021/12/12 03:25:11;;;;;;;7.07;3.33;;;16.00;99.90;;;;;;5206435;28;20025;-80
2021/12/12 03:27:42;;;;;;;5.80;2.78;;;15.80;99.90;;;;;;5206353;28;20350;-80
2021/12/12 03:30:14;;;;;;;8.27;3.17;;;15.70;99.90;;;;;;5206390;28;20380;-80
2021/12/12 03:32:45;;;;;;;7.32;3.42;;;15.50;99.90;;;;;;5206177;28;20033;-79
2021/12/12 03:35:16;;;;;;;7.68;3.25;;;15.30;99.90;;;;;;5206303;28;20060;-80
2021/12/12 03:37:47;;;;;;;6.35;3.85;;;15.40;99.90;;;;;;5206155;28;20478;-80
2021/12/12 03:40:32;;;;;;;7.32;3.60;;;15.20;99.90;;;;;;5206074;28;20117;-80
2021/12/12 03:43:06;;;;;;;11.05;3.65;;;15.00;99.90;;;;;;5205019;28;20079;-79
2021/12/12 03:45:38;;;;;;;6.82;3.90;;;14.90;99.90;;;;;;5206253;28;20553;-80
2021/12/12 03:48:18;;;;;;;8.05;4.18;;;14.70;99.90;;;;;;5210077;28;20151;-80
2021/12/12 03:50:50;;;;;;;;;;;14.40;99.90;;;;;;5210520;28;20025;-80
2021/12/12 03:53:21;;;;;;;10.27;4.22;;;14.10;99.90;;;;;;5209879;28;20271;-81
2021/12/12 03:55:53;;;;;;;8.45;4.32;;;14.30;99.90;;;;;;5209852;28;20084;-81
2021/12/12 03:58:24;;;;;;;9.65;4.30;;;14.30;99.90;;;;;;5208434;28;20388;-81
2021/12/12 04:01:01;;;;;;;10.48;4.90;;;14.30;99.90;;;;;;5208469;28;20468;-80
2021/12/12 04:03:32;;;;;;;10.40;5.40;;;13.80;99.90;;;;;;5209787;28;20423;-81
2021/12/12 04:06:07;;;;;;;12.82;5.93;;;13.70;99.90;;;;;;5209757;28;20408;-80
2021/12/12 04:08:42;;;;;;;10.43;6.22;;;13.60;99.90;;;;;;5208202;28;20510;-81
2021/12/12 04:11:22;;;;;;;11.15;6.80;;;13.60;99.90;;;;;;5208344;28;20049;-81
2021/12/12 04:13:55;;;;;;;11.73;6.60;;;13.60;99.90;;;;;;5208231;28;20080;-81
2021/12/12 04:16:29;;;;;;;13.50;6.55;;;13.40;99.90;;;;;;5209465;28;20026;-80
2021/12/12 04:19:00;;;;;;;11.18;7.03;;;13.40;99.90;;;;;;5208046;28;20024;-80
2021/12/12 04:21:31;;;;;;;15.20;7.70;;;13.20;99.90;;;;;;5209444;28;20028;-81
2021/12/12 04:24:03;;;;;;;10.00;7.95;;;13.20;99.90;;;;;;5209350;28;20524;-80
2021/12/12 04:26:42;;;;;;;11.77;8.00;;;13.00;99.90;;;;;;5209330;28;20447;-78
2021/12/12 04:29:17;;;;;;;11.30;8.82;;;13.00;99.90;;;;;;5208030;28;20460;-79
2021/12/12 04:31:55;;;;;;;15.18;9.73;;;12.90;99.90;;;;;;5208005;28;20025;-79
2021/12/12 04:34:28;;;;;;;11.93;9.40;;;13.10;99.90;;;;;;5209232;28;20037;-78
2021/12/12 04:37:03;;;;;;;16.10;9.52;;;13.00;99.90;;;;;;5209087;28;20030;-78
2021/12/12 04:39:38;;;;;;;16.35;9.70;;;13.00;99.90;;;;;;5208705;28;20049;-78
2021/12/12 04:42:18;;;;;;;13.95;8.55;;;13.00;99.90;;;;;;5209016;28;20017;-78
2021/12/12 04:44:53;;;;;;;12.25;8.10;;;13.20;99.90;;;;;;5209011;28;20080;-79
2021/12/12 04:50:51;;;;;;;14.88;7.70;;;13.60;99.90;;;;;;5208928;28;20129;-78
2021/12/12 04:53:24;;;;;;;12.88;8.18;;;13.30;99.90;;;;;;5208753;28;20388;-78
2021/12/12 04:56:03;;;;;;;15.00;8.85;;;13.10;99.90;;;;;;5208706;28;20030;-78
2021/12/12 04:58:49;;;;;;;15.95;9.88;;;13.00;99.90;;;;;;5206844;28;20036;-78
2021/12/12 05:01:30;;;;;;;21.33;12.65;;;12.80;99.90;;;;;;5207415;28;20029;-80
2021/12/12 05:04:06;;;;;;;15.90;8.35;;;12.70;99.90;;;;;;5207057;28;20021;-79
2021/12/12 05:06:42;;;;;;;13.30;9.32;;;13.00;99.90;;;;;;5208485;28;20029;-79
2021/12/12 05:09:29;;;;;;;15.45;8.25;;;12.80;99.90;;;;;;5208419;28;20064;-80
2021/12/12 05:12:23;;;;;;;16.85;9.15;;;13.00;99.90;;;;;;5208384;28;20431;-78
2021/12/12 05:15:06;;;;;;;16.65;9.35;;;12.90;99.90;;;;;;5200984;28;20048;-78
2021/12/12 05:18:01;;;;;;;24.98;12.65;;;12.80;99.90;;;;;;5208187;28;20100;-78
2021/12/12 05:20:42;;;;;;;18.13;10.23;;;12.70;99.90;;;;;;5207862;28;20141;-78
2021/12/12 05:23:16;;;;;;;29.77;11.20;;;12.60;99.90;;;;;;5208287;28;20052;-78
2021/12/12 05:25:56;;;;;;;24.10;9.18;;;12.70;99.90;;;;;;5208182;28;20068;-78
2021/12/12 05:28:30;;;;;;;;;;;12.70;99.90;;;;;;5208530;28;20160;-78
2021/12/12 05:31:04;;;;;;;24.05;7.88;;;12.90;99.90;;;;;;5208025;28;20366;-79
2021/12/12 05:33:36;;;;;;;23.27;8.57;;;12.90;99.90;;;;;;5207970;28;20029;-79
2021/12/12 05:36:09;;;;;;;23.90;9.00;;;12.70;99.90;;;;;;5208042;28;20026;-81
2021/12/12 05:38:40;;;;;;;26.60;11.02;;;12.60;99.90;;;;;;5207344;28;20059;-78
2021/12/12 05:41:11;;;;;;;24.50;11.10;;;12.50;99.90;;;;;;5207868;28;20030;-78
2021/12/12 05:43:42;;;;;;;25.13;10.98;;;12.40;99.90;;;;;;5207777;28;20018;-80
2021/12/12 05:46:18;;;;;;;25.30;9.60;;;12.40;99.90;;;;;;5206378;28;20048;-78
2021/12/12 05:48:50;;;;;;;19.20;9.18;;;12.60;99.90;;;;;;5207708;28;20420;-82
2021/12/12 05:51:22;;;;;;;20.02;7.28;;;12.50;99.90;;;;;;5206467;28;20448;-78
2021/12/12 05:53:54;;;;;;;22.38;7.20;;;12.60;99.90;;;;;;5206226;28;20037;-81
2021/12/12 05:56:27;;;;;;;17.33;6.50;;;12.70;99.90;;;;;;5206195;28;20021;-82
2021/12/12 05:58:59;;;;;;;16.70;7.20;;;12.60;99.90;;;;;;5206167;28;20029;-82
2021/12/12 06:01:31;;;;;;;16.73;6.05;;;12.80;99.90;;;;;;5207533;28;20033;-82
2021/12/12 06:04:03;;;;;;;10.60;3.42;;;12.80;99.90;;;;;;5207028;28;20439;-81
2021/12/12 06:06:39;;;;;;;9.45;2.60;;;13.00;99.90;;;;;;5206799;28;20041;-81
2021/12/12 06:09:11;;;;;;;4.18;1.92;;;13.00;99.90;;;;;;5206746;28;20060;-81
2021/12/12 06:11:45;;;;;;;7.15;1.58;;;13.00;99.90;;;;;;5206930;28;20021;-81
2021/12/12 06:14:17;;;;;;;4.63;1.65;;;13.00;99.90;;;;;;5205600;28;20132;-80
2021/12/12 06:16:49;;;;;;;4.55;1.25;;;12.90;99.90;;;;;;5207163;28;20021;-80
2021/12/12 06:19:23;;;;;;;5.82;1.65;;;12.90;99.90;;;;;;5205810;28;20063;-81
2021/12/12 06:21:57;;;;;;;14.50;6.53;;;13.00;99.90;;;;;;5207201;28;20044;-80
2021/12/12 06:24:31;;;;;;;8.80;4.25;;;13.00;99.90;;;;;;5207064;28;20030;-78
2021/12/12 06:27:10;;;;;;;9.65;3.15;;;13.00;99.90;;;;;;5206989;28;20104;-80
2021/12/12 06:29:44;;;;;;;4.32;1.20;;;13.00;99.90;;;;;;5205975;28;20432;-79
2021/12/12 06:32:15;;;;;;;4.90;1.92;;;13.00;99.90;;;;;;5207029;28;20036;-80
2021/12/12 06:34:48;;;;;;;1.95;0.93;;;13.00;99.90;;;;;;5206988;28;20056;-80
2021/12/12 06:37:19;;;;;;;2.88;0.90;;;12.90;99.90;;;;;;5206631;28;20014;-81
2021/12/12 06:39:52;;;;;;;4.30;0.90;;;12.90;99.90;;;;;;5206529;28;20053;-81
2021/12/12 06:42:23;;;;;;;4.32;1.27;;;12.80;99.90;;;;;;5206851;28;20029;-81
2021/12/12 06:44:54;;;;;;;6.82;1.02;;;12.80;99.90;;;;;;5206805;28;20040;-81
2021/12/12 06:47:27;;;;;;;2.78;1.15;;;12.70;99.90;;;;;;5205505;28;20021;-81
2021/12/12 06:49:59;;;;;;;26.67;14.65;;;12.70;99.90;;;;;;5206741;28;20021;-81
2021/12/12 06:52:31;;;;;;;4.47;1.10;;;12.60;99.90;;;;;;5206567;28;20063;-82
2021/12/12 06:55:06;;;;;;;6.82;2.13;;;12.40;99.90;;;;;;5206686;28;20446;-81
2021/12/12 06:57:38;;;;;;;2.10;0.70;;;12.40;99.90;;;;;;5206586;28;20026;-80
2021/12/12 07:00:13;;;;;;;3.95;0.88;;;12.50;99.90;;;;;;5206657;28;20372;-80
2021/12/12 07:02:45;;;;;;;2.95;1.23;;;12.40;99.90;;;;;;5205422;28;20380;-82
2021/12/12 07:05:21;;;;;;;5.25;0.90;;;12.30;99.90;;;;;;5206626;28;20048;-79
2021/12/12 07:07:54;;;;;;;7.50;1.10;;;12.30;99.90;;;;;;5206274;28;20025;-81
2021/12/12 07:10:29;;;;;;;9.18;1.48;;;12.30;99.90;;;;;;5206647;28;20429;-82
2021/12/12 07:13:00;;;;;;;8.48;2.90;;;12.20;99.90;;;;;;5206382;28;20080;-83
2021/12/12 07:15:36;;;;;;;7.18;1.73;;;12.20;99.90;;;;;;5206475;28;20020;-83
2021/12/12 07:18:10;;;;;;;5.72;1.05;;;12.10;99.90;;;;;;5206366;28;20385;-79
2021/12/12 07:20:43;;;;;;;18.85;9.98;;;11.90;99.90;;;;;;5205440;28;20025;-82
2021/12/12 07:23:14;;;;;;;4.93;0.95;;;11.90;99.90;;;;;;5210615;28;20032;-83
2021/12/12 07:25:46;;;;;;;5.25;0.85;;;12.20;99.90;;;;;;5210511;28;20021;-82
2021/12/12 07:28:18;;;;;;;7.03;1.60;;;12.00;99.90;;;;;;5210144;28;20029;-83
2021/12/12 07:30:49;;;;;;;13.90;2.83;;;12.10;99.90;;;;;;5210075;28;20418;-82
2021/12/12 07:33:20;;;;;;;12.23;2.95;;;12.10;99.90;;;;;;5210345;28;20037;-81
2021/12/12 07:35:52;;;;;;;6.10;1.40;;;12.00;99.90;;;;;;5210465;28;20029;-82
2021/12/12 07:38:23;;;;;;;9.55;1.92;;;12.00;99.90;;;;;;5209690;28;20064;-78
2021/12/12 07:40:54;;;;;;;4.20;0.90;;;12.00;99.90;;;;;;5210211;28;20476;-78
2021/12/12 07:43:28;;;;;;;5.88;1.08;;;12.10;99.90;;;;;;5210148;28;20051;-83
2021/12/12 07:46:00;;;;;;;7.10;1.75;;;12.00;99.90;;;;;;5210169;28;20056;-82
2021/12/12 07:48:32;;;;;;;6.97;1.92;;;12.00;99.90;;;;;;5210067;28;20052;-82
2021/12/12 07:51:04;;;;;;;8.70;2.08;;;12.20;99.90;;;;;;5208777;28;20056;-83
2021/12/12 07:53:35;;;;;;;7.82;1.70;;;12.10;99.90;;;;;;5208625;28;20044;-83
2021/12/12 07:56:07;;;;;;;7.13;1.35;;;12.10;99.90;;;;;;5208623;28;20025;-83
2021/12/12 07:58:38;;;;;;;6.60;1.33;;;12.10;99.90;;;;;;5209495;28;20048;-83
2021/12/12 08:01:09;;;;;;;7.65;1.00;;;12.20;99.90;;;;;;5209830;28;20022;-83
2021/12/12 08:03:41;;;;;;;7.95;1.00;;;12.20;99.90;;;;;;5208510;28;20040;-80
2021/12/12 08:06:15;;;;;;;4.80;1.67;;;12.30;99.90;;;;;;5209703;28;20472;-82
2021/12/12 08:08:46;;;;;;;8.00;2.65;;;12.40;99.90;;;;;;5208099;28;20021;-82
2021/12/12 08:11:23;;;;;;;4.68;0.95;;;12.30;99.90;;;;;;5209662;28;20171;-82
2021/12/12 08:13:56;;;;;;;7.53;1.13;;;12.40;99.90;;;;;;5209489;28;20036;-82
2021/12/12 08:16:27;;;;;;;6.65;1.70;;;12.50;99.90;;;;;;5208484;28;20501;-82
2021/12/12 08:19:00;;;;;;;3.03;0.90;;;12.50;99.90;;;;;;5208852;28;20486;-81
2021/12/12 08:21:33;;;;;;;7.70;0.90;;;12.50;99.90;;;;;;5209937;28;20017;-82
2021/12/12 08:24:10;;;;;;;8.43;1.52;;;12.70;99.90;;;;;;5208269;28;20044;-81
2021/12/12 08:26:43;;;;;;;9.65;2.10;;;12.90;99.90;;;;;;5208771;28;20026;-81
2021/12/12 08:29:15;;;;;;;7.10;1.83;;;12.80;99.90;;;;;;5208086;28;20025;-81
2021/12/12 08:31:47;;;;;;;10.98;5.32;;;12.80;99.90;;;;;;5208996;28;20017;-82
2021/12/12 08:34:18;;;;;;;14.05;4.93;;;12.60;99.90;;;;;;5207908;28;20043;-81
2021/12/12 08:36:51;;;;;;;8.88;2.78;;;12.60;99.90;;;;;;5208956;28;20064;-82
2021/12/12 08:39:23;;;;;;;6.65;2.85;;;12.50;99.90;;;;;;5208625;28;20088;-81
2021/12/12 08:41:56;;;;;;;15.38;4.45;;;12.50;99.90;;;;;;5209073;28;20372;-81
2021/12/12 08:44:28;;;;;;;8.82;2.30;;;12.50;99.90;;;;;;5208923;28;20476;-82
2021/12/12 08:47:02;;;;;;;9.50;3.50;;;12.50;99.90;;;;;;5208916;28;20029;-82
2021/12/12 08:49:35;;;;;;;7.43;2.55;;;12.50;99.90;;;;;;5207716;28;20484;-82
2021/12/12 08:52:20;;;;;;;6.18;1.75;;;12.50;99.90;;;;;;5208760;28;20361;-82
2021/12/12 08:54:53;;;;;;;8.30;2.15;;;12.50;99.90;;;;;;5208818;28;20457;-83
2021/12/12 08:57:39;;;;;;;4.20;1.65;;;12.40;99.90;;;;;;5208740;28;20017;-80
2021/12/12 09:00:15;;;;;;;7.15;2.50;;;12.50;99.90;;;;;;5207371;28;20038;-82
2021/12/12 09:02:46;;;;;;;5.47;2.35;;;12.50;99.90;;;;;;5207367;28;20111;-81
2021/12/12 09:05:23;;;;;;;7.18;2.25;;;12.50;99.90;;;;;;5208517;28;20496;-81
2021/12/12 09:08:01;;;;;;;4.43;1.30;;;12.50;99.90;;;;;;5208185;28;20496;-81
2021/12/12 09:10:59;;;;;;;6.47;1.55;;;12.40;99.90;;;;;;5207113;28;20388;-81
2021/12/12 09:13:45;;;;;;;10.40;5.18;;;12.40;99.90;;;;;;5208084;28;20500;-81
2021/12/12 09:16:30;;;;;;;15.18;3.90;;;12.40;99.90;;;;;;5207124;28;20024;-81
2021/12/12 09:19:19;;;;;;;7.07;1.60;;;12.40;99.90;;;;;;5207015;28;20032;-79
2021/12/12 09:22:00;;;;;;;5.00;1.10;;;12.50;99.90;;;;;;5208390;28;20049;-80
2021/12/12 09:24:43;;;;;;;5.65;2.00;;;12.50;99.90;;;;;;5207062;28;20392;-82
2021/12/12 09:27:27;;;;;;;7.43;3.72;;;12.40;99.90;;;;;;5206871;28;20079;-78
2021/12/12 09:30:15;;;;;;;5.68;1.73;;;12.40;99.90;;;;;;5208021;28;20025;-76
2021/12/12 09:32:54;;;;;;;9.02;3.63;;;12.40;99.90;;;;;;5208098;28;20029;-82
2021/12/12 09:35:31;;;;;;;6.40;2.25;;;12.40;99.90;;;;;;5206763;28;20083;-82
2021/12/12 09:38:12;;;;;;;6.88;2.90;;;12.40;99.90;;;;;;5206234;28;20484;-80
2021/12/12 09:41:05;;;;;;;7.55;3.05;;;12.30;99.90;;;;;;5207932;28;20018;-82
2021/12/12 09:44:15;;;;;;;4.55;1.55;;;12.30;99.90;;;;;;5206486;28;20030;-81
2021/12/12 09:47:27;;;;;;;7.28;1.70;;;12.30;99.90;;;;;;5195793;28;20079;-78
2021/12/12 09:53:28;;;;;;;7.80;1.63;;;12.40;99.90;;;;;;5207650;28;20091;-77
2021/12/12 09:56:14;;;;;;;17.70;9.88;;;12.50;99.90;;;;;;5207642;28;20033;-76
2021/12/12 09:59:05;;;;;;;5.03;1.33;;;12.50;99.90;;;;;;5206418;28;20013;-76
2021/12/12 10:02:04;;;;;;;6.22;2.30;;;12.50;99.90;;;;;;5207538;28;20037;-78
2021/12/12 10:05:29;;;;;;;5.40;1.63;;;12.60;99.90;;;;;;5207421;28;20365;-77
2021/12/12 10:08:09;;;;;;;5.22;1.60;;;12.60;99.90;;;;;;5164290;28;20034;-77
2021/12/12 10:10:57;;;;;;;4.95;1.08;;;12.50;99.90;;;;;;5206132;28;20025;-78
2021/12/12 10:13:42;;;;;;;4.38;1.92;;;12.50;99.90;;;;;;5207222;28;20116;-78
2021/12/12 10:16:39;;;;;;;8.05;1.40;;;12.60;99.90;;;;;;5207290;28;20533;-78
2021/12/12 10:19:17;;;;;;;6.22;1.17;;;12.50;99.90;;;;;;5205742;28;20060;-77
2021/12/12 10:22:17;;;;;;;10.75;3.30;;;12.50;99.90;;;;;;5207210;28;20021;-77
2021/12/12 10:25:04;;;;;;;7.07;1.92;;;12.50;99.90;;;;;;5207152;28;20041;-77
2021/12/12 10:27:58;;;;;;;5.85;1.42;;;12.50;99.90;;;;;;5207125;28;20038;-77
2021/12/12 10:30:38;;;;;;;8.32;3.00;;;12.60;99.90;;;;;;5205810;28;20468;-77
2021/12/12 10:33:24;;;;;;;;;;;12.50;99.90;;;;;;5207320;28;20380;-77
2021/12/12 10:36:05;;;;;;;5.85;2.33;;;12.60;99.90;;;;;;5207017;28;20294;-76
2021/12/12 10:38:51;;;;;;;8.85;3.35;;;12.60;99.90;;;;;;5206447;28;20049;-77
2021/12/12 10:41:26;;;;;;;6.70;1.38;;;12.70;99.90;;;;;;5205712;28;20033;-77
2021/12/12 10:44:05;;;;;;;6.95;2.08;;;12.70;99.90;;;;;;5205619;28;20365;-77
2021/12/12 10:49:57;;;;;;;8.25;3.13;;;12.70;99.90;;;;;;5206282;28;20030;-77
2021/12/12 10:52:53;;;;;;;7.28;1.30;;;12.70;99.90;;;;;;5190676;28;20581;-76
2021/12/12 10:55:30;;;;;;;4.03;1.17;;;12.60;99.90;;;;;;5205026;28;20040;-76
2021/12/12 10:58:14;;;;;;;5.50;1.65;;;12.60;99.90;;;;;;5205351;28;20084;-77
2021/12/12 11:00:51;;;;;;;5.30;1.27;;;12.60;99.90;;;;;;5206776;28;20033;-77
2021/12/12 11:04:01;;;;;;;5.38;1.30;;;12.70;99.90;;;;;;5206660;28;20028;-77
2021/12/12 11:06:41;;;;;;;3.95;0.88;;;12.70;99.90;;;;;;5185835;28;20042;-78
2021/12/12 11:09:29;;;;;;;6.25;1.13;;;12.60;99.90;;;;;;5205160;28;20033;-77
2021/12/12 11:12:20;;;;;;;5.15;1.27;;;12.50;99.90;;;;;;5205308;28;20025;-77
2021/12/12 11:15:17;;;;;;;7.88;3.33;;;12.60;99.90;;;;;;5205202;28;20095;-77
2021/12/12 11:18:08;;;;;;;6.03;1.90;;;12.60;99.90;;;;;;5206481;28;20090;-77
2021/12/12 11:20:43;;;;;;;6.20;2.50;;;12.60;99.90;;;;;;5206388;28;20025;-78
2021/12/12 11:23:22;;;;;;;9.25;1.88;;;12.70;99.90;;;;;;5205017;28;20124;-78
2021/12/12 11:25:59;;;;;;;4.10;1.50;;;12.70;99.90;;;;;;5206435;28;20033;-77
2021/12/12 11:28:46;;;;;;;3.53;1.27;;;12.50;99.90;;;;;;5206232;28;20072;-77
2021/12/12 11:31:25;;;;;;;4.95;2.10;;;12.60;99.90;;;;;;5206338;28;20017;-78
2021/12/12 11:33:56;;;;;;;7.55;2.78;;;12.60;99.90;;;;;;5206295;28;20044;-79
2021/12/12 11:36:31;;;;;;;5.57;1.95;;;12.70;99.90;;;;;;5206144;28;20022;-78
2021/12/12 11:39:14;;;;;;;7.88;1.00;;;12.80;99.90;;;;;;5205949;28;20058;-77
2021/12/12 11:42:00;;;;;;;2.78;0.88;;;12.80;99.90;;;;;;5204886;28;20383;-78
2021/12/12 11:45:03;;;;;;;5.90;1.40;;;12.70;99.90;;;;;;5206234;28;20022;-78
2021/12/12 11:48:06;;;;;;;11.38;1.77;;;12.60;99.90;;;;;;5204440;28;20037;-77
2021/12/12 11:51:13;;;;;;;8.27;3.50;;;12.80;99.90;;;;;;5206139;28;20387;-77
2021/12/12 11:53:50;;;;;;;4.53;0.93;;;12.90;99.90;;;;;;5171963;28;20076;-78
2021/12/12 11:56:21;;;;;;;4.47;1.73;;;12.80;99.90;;;;;;5206069;28;20018;-77
2021/12/12 11:59:04;;;;;;;5.35;1.27;;;12.80;99.90;;;;;;5206139;28;20040;-78
2021/12/12 12:01:49;;;;;;;2.45;0.60;;;12.70;99.90;;;;;;5206069;28;20017;-78
2021/12/12 12:04:45;;;;;;;3.80;1.27;;;12.70;99.90;;;;;;5206085;28;20022;-79
2021/12/12 12:07:36;;;;;;;4.82;1.90;;;12.70;99.90;;;;;;5205774;28;20034;-77
2021/12/12 12:10:13;;;;;;;;;;;12.70;99.90;;;;;;5208771;28;20029;-77
2021/12/12 12:13:16;;;;;;;3.53;0.80;;;12.80;99.90;;;;;;5208119;28;20368;-78
2021/12/12 12:15:52;;;;;;;4.68;0.60;;;12.90;99.90;;;;;;5208316;28;20032;-78
2021/12/12 12:18:40;;;;;;;7.97;2.08;;;12.70;99.90;;;;;;5209468;28;20032;-78
2021/12/12 12:21:25;;;;;;;2.00;0.50;;;12.50;99.90;;;;;;5208152;28;20024;-80
2021/12/12 12:24:17;;;;;;;3.83;0.55;;;12.60;99.90;;;;;;5209484;28;20022;-78
2021/12/12 12:27:26;;;;;;;3.60;0.80;;;12.60;99.90;;;;;;5209266;28;20028;-78
2021/12/12 12:30:14;;;;;;;1.33;0.55;;;12.60;99.90;;;;;;5165851;28;20485;-78
2021/12/12 12:33:12;;;;;;;2.03;0.50;;;12.60;99.90;;;;;;5166067;28;20034;-78
2021/12/12 12:36:17;;;;;;;4.00;0.60;;;12.50;99.90;;;;;;5166044;28;20057;-76
2021/12/12 12:39:11;;;;;;;1.90;0.57;;;12.50;99.90;;;;;;5158276;28;20050;-78
2021/12/12 12:42:33;;;;;;;3.00;0.40;;;12.50;99.90;;;;;;5129437;28;20390;-78
2021/12/12 12:45:41;;;;;;;2.30;0.40;;;12.40;99.90;;;;;;5128933;28;20026;-78
2021/12/12 12:48:45;;;;;;;3.13;0.68;;;12.40;99.90;;;;;;5129444;28;20066;-79
2021/12/12 12:51:40;;;;;;;1.73;0.35;;;12.30;99.90;;;;;;5129188;28;20042;-83
2021/12/12 12:54:32;;;;;;;2.55;0.50;;;12.40;99.90;;;;;;5129473;28;20386;-81
2021/12/12 12:57:24;;;;;;;3.03;0.65;;;12.40;99.90;;;;;;5145513;28;20058;-79
2021/12/12 13:00:06;;;;;;;2.15;0.57;;;12.50;99.90;;;;;;5149790;28;20042;-80
2021/12/12 13:03:10;;;;;;;4.10;0.70;;;12.50;99.90;;;;;;5167870;28;20113;-80
2021/12/12 13:06:07;;;;;;;3.17;0.50;;;12.40;99.90;;;;;;5167608;28;20466;-81
2021/12/12 13:08:50;;;;;;;1.50;0.60;;;12.50;99.90;;;;;;5167582;28;20081;-81
2021/12/12 13:11:30;;;;;;;2.72;0.50;;;12.50;99.90;;;;;;5167534;28;20022;-80
2021/12/12 13:14:13;;;;;;;3.70;0.90;;;12.50;99.90;;;;;;5167648;28;20202;-80
2021/12/12 13:17:11;;;;;;;2.63;0.88;;;12.50;99.90;;;;;;5167583;28;20027;-79
2021/12/12 13:19:44;;;;;;;4.03;2.13;;;12.40;99.90;;;;;;5148096;28;20049;-79
2021/12/12 13:22:26;;;;;;;2.35;0.88;;;12.50;99.90;;;;;;5167502;28;20098;-79
2021/12/12 13:25:12;;;;;;;2.67;0.70;;;12.40;99.90;;;;;;5166293;28;20568;-80
2021/12/12 13:28:08;;;;;;;5.68;0.95;;;12.40;99.90;;;;;;5167475;28;20030;-79
2021/12/12 13:30:42;;;;;;;6.60;0.90;;;12.40;99.90;;;;;;5167452;28;20030;-79
2021/12/12 13:33:27;;;;;;;2.60;0.65;;;12.30;99.90;;;;;;5167373;28;20026;-79
2021/12/12 13:36:01;;;;;;;5.32;1.02;;;12.40;99.90;;;;;;5166052;28;20474;-79
2021/12/12 13:38:54;;;;;;;2.47;0.70;;;12.30;99.90;;;;;;5177623;28;20045;-82
2021/12/12 13:41:50;;;;;;;3.72;0.60;;;12.30;99.90;;;;;;5207753;28;20030;-79
2021/12/12 13:44:34;;;;;;;3.65;1.08;;;12.30;99.90;;;;;;5207961;28;20029;-81
2021/12/12 13:47:17;;;;;;;3.72;1.42;;;12.30;99.90;;;;;;5207900;28;20100;-79
2021/12/12 13:50:04;;;;;;;4.82;0.90;;;12.10;99.90;;;;;;5207824;28;20118;-80
2021/12/12 13:52:59;;;;;;;4.47;1.45;;;12.20;99.90;;;;;;5207710;28;20036;-79
2021/12/12 13:55:53;;;;;;;2.80;0.60;;;12.00;99.90;;;;;;5206317;28;20420;-79
2021/12/12 13:58:29;;;;;;;3.25;1.10;;;12.10;99.90;;;;;;5207552;28;20057;-83
2021/12/12 14:01:08;;;;;;;3.38;0.80;;;11.90;99.90;;;;;;5206298;28;20017;-79
2021/12/12 14:04:06;;;;;;;2.45;0.68;;;11.90;99.90;;;;;;5206074;28;20040;-78
2021/12/12 14:06:41;;;;;;;4.18;1.40;;;12.00;99.90;;;;;;5205957;28;20021;-78
2021/12/12 14:09:17;;;;;;;6.40;1.83;;;11.90;99.90;;;;;;5207323;28;20028;-78